sensor_id;sensor_type;location;lat;lon;timestamp;P1;durP1;ratioP1;P2;durP2;ratioP2
3683;SDS011;1858;48.716;9.648;2022-12-29T00:00:09;2.73;;;1.50;;
3683;SDS011;1858;48.716;9.648;2022-12-29T00:02:38;4.03;;;1.63;;
3683;SDS011;1858;48.716;9.648;2022-12-29T00:05:07;2.80;;;1.40;;
3683;SDS011;1858;48.716;9.648;2022-12-29T00:07:36;1.70;;;1.00;;
3683;SDS011;1858;48.716;9.648;2022-12-29T00:10:04;3.97;;;0.90;;
3683;SDS011;1858;48.716;9.648;2022-12-29T00:12:34;2.47;;;1.00;;
3683;SDS011;1858;48.716;9.648;2022-12-29T00:15:20;1.90;;;1.07;;
3683;SDS011;1858;48.716;9.648;2022-12-29T00:18:03;1.50;;;0.70;;
3683;SDS011;1858;48.716;9.648;2022-12-29T00:20:33;2.47;;;1.13;;
3683;SDS011;1858;48.716;9.648;2022-12-29T00:23:21;1.83;;;0.80;;
3683;SDS011;1858;48.716;9.648;2022-12-29T00:26:15;3.00;;;1.30;;
3683;SDS011;1858;48.716;9.648;2022-12-29T00:29:02;4.13;;;0.80;;
3683;SDS011;1858;48.716;9.648;2022-12-29T00:31:48;2.70;;;1.47;;
3683;SDS011;1858;48.716;9.648;2022-12-29T00:34:34;4.47;;;1.00;;
3683;SDS011;1858;48.716;9.648;2022-12-29T00:37:21;1.70;;;1.10;;
3683;SDS011;1858;48.716;9.648;2022-12-29T00:39:51;1.57;;;0.70;;
3683;SDS011;1858;48.716;9.648;2022-12-29T00:42:39;1.70;;;1.10;;
3683;SDS011;1858;48.716;9.648;2022-12-29T00:45:25;2.43;;;1.20;;
3683;SDS011;1858;48.716;9.648;2022-12-29T00:47:53;4.73;;;1.03;;
3683;SDS011;1858;48.716;9.648;2022-12-29T00:50:22;2.50;;;0.90;;
3683;SDS011;1858;48.716;9.648;2022-12-29T00:52:50;1.30;;;0.63;;
3683;SDS011;1858;48.716;9.648;2022-12-29T00:55:18;1.90;;;0.83;;
3683;SDS011;1858;48.716;9.648;2022-12-29T00:57:47;1.80;;;0.90;;
3683;SDS011;1858;48.716;9.648;2022-12-29T01:00:16;2.53;;;0.70;;
3683;SDS011;1858;48.716;9.648;2022-12-29T01:02:44;2.97;;;0.70;;
3683;SDS011;1858;48.716;9.648;2022-12-29T01:05:12;1.33;;;0.70;;
3683;SDS011;1858;48.716;9.648;2022-12-29T01:07:41;2.27;;;1.10;;
3683;SDS011;1858;48.716;9.648;2022-12-29T01:10:09;3.63;;;1.20;;
3683;SDS011;1858;48.716;9.648;2022-12-29T01:12:38;2.87;;;0.90;;
3683;SDS011;1858;48.716;9.648;2022-12-29T01:15:12;2.47;;;0.70;;
3683;SDS011;1858;48.716;9.648;2022-12-29T01:17:42;2.57;;;0.60;;
3683;SDS011;1858;48.716;9.648;2022-12-29T01:20:10;1.37;;;0.67;;
3683;SDS011;1858;48.716;9.648;2022-12-29T01:22:40;2.27;;;0.80;;
3683;SDS011;1858;48.716;9.648;2022-12-29T01:25:09;1.80;;;0.90;;
3683;SDS011;1858;48.716;9.648;2022-12-29T01:27:37;1.40;;;0.50;;
3683;SDS011;1858;48.716;9.648;2022-12-29T01:30:06;1.77;;;0.77;;
3683;SDS011;1858;48.716;9.648;2022-12-29T01:32:35;1.30;;;0.50;;
3683;SDS011;1858;48.716;9.648;2022-12-29T01:35:03;4.73;;;0.77;;
3683;SDS011;1858;48.716;9.648;2022-12-29T01:37:32;1.67;;;0.50;;
3683;SDS011;1858;48.716;9.648;2022-12-29T01:40:00;1.90;;;0.60;;
3683;SDS011;1858;48.716;9.648;2022-12-29T01:42:29;1.70;;;0.83;;
3683;SDS011;1858;48.716;9.648;2022-12-29T01:44:58;1.80;;;0.90;;
3683;SDS011;1858;48.716;9.648;2022-12-29T01:50:22;1.30;;;0.50;;
3683;SDS011;1858;48.716;9.648;2022-12-29T01:52:50;4.70;;;0.57;;
3683;SDS011;1858;48.716;9.648;2022-12-29T01:55:20;1.47;;;0.60;;
3683;SDS011;1858;48.716;9.648;2022-12-29T01:57:49;1.47;;;0.57;;
3683;SDS011;1858;48.716;9.648;2022-12-29T02:00:20;2.23;;;0.70;;
3683;SDS011;1858;48.716;9.648;2022-12-29T02:02:50;1.20;;;0.40;;
3683;SDS011;1858;48.716;9.648;2022-12-29T02:05:21;2.73;;;1.03;;
3683;SDS011;1858;48.716;9.648;2022-12-29T02:07:54;3.50;;;0.80;;
3683;SDS011;1858;48.716;9.648;2022-12-29T02:10:23;1.77;;;0.87;;
3683;SDS011;1858;48.716;9.648;2022-12-29T02:12:53;2.33;;;1.30;;
3683;SDS011;1858;48.716;9.648;2022-12-29T02:15:26;1.50;;;0.63;;
3683;SDS011;1858;48.716;9.648;2022-12-29T02:18:12;3.30;;;0.57;;
3683;SDS011;1858;48.716;9.648;2022-12-29T02:23:47;1.83;;;0.80;;
3683;SDS011;1858;48.716;9.648;2022-12-29T02:29:37;3.70;;;0.90;;
3683;SDS011;1858;48.716;9.648;2022-12-29T02:34:53;2.13;;;0.90;;
3683;SDS011;1858;48.716;9.648;2022-12-29T02:45:49;1.80;;;0.67;;
3683;SDS011;1858;48.716;9.648;2022-12-29T02:48:41;3.20;;;1.23;;
3683;SDS011;1858;48.716;9.648;2022-12-29T02:51:20;2.43;;;0.97;;
3683;SDS011;1858;48.716;9.648;2022-12-29T02:53:50;1.60;;;0.73;;
3683;SDS011;1858;48.716;9.648;2022-12-29T02:56:37;2.27;;;0.60;;
3683;SDS011;1858;48.716;9.648;2022-12-29T02:59:05;2.07;;;0.60;;
3683;SDS011;1858;48.716;9.648;2022-12-29T03:05:14;1.30;;;0.50;;
3683;SDS011;1858;48.716;9.648;2022-12-29T03:13:44;4.10;;;0.80;;
3683;SDS011;1858;48.716;9.648;2022-12-29T03:16:38;1.57;;;0.50;;
3683;SDS011;1858;48.716;9.648;2022-12-29T03:19:17;1.40;;;0.60;;
3683;SDS011;1858;48.716;9.648;2022-12-29T03:21:53;3.63;;;0.60;;
3683;SDS011;1858;48.716;9.648;2022-12-29T03:24:43;2.63;;;0.50;;
3683;SDS011;1858;48.716;9.648;2022-12-29T03:27:15;1.57;;;0.87;;
3683;SDS011;1858;48.716;9.648;2022-12-29T03:29:50;1.37;;;0.67;;
3683;SDS011;1858;48.716;9.648;2022-12-29T03:32:23;1.27;;;0.50;;
3683;SDS011;1858;48.716;9.648;2022-12-29T03:35:03;3.93;;;0.60;;
3683;SDS011;1858;48.716;9.648;2022-12-29T03:37:35;2.03;;;0.97;;
3683;SDS011;1858;48.716;9.648;2022-12-29T03:40:05;1.80;;;1.00;;
3683;SDS011;1858;48.716;9.648;2022-12-29T03:42:35;1.60;;;0.60;;
3683;SDS011;1858;48.716;9.648;2022-12-29T03:45:06;1.80;;;0.70;;
3683;SDS011;1858;48.716;9.648;2022-12-29T03:47:35;1.40;;;0.50;;
3683;SDS011;1858;48.716;9.648;2022-12-29T03:50:04;1.30;;;0.50;;
3683;SDS011;1858;48.716;9.648;2022-12-29T03:52:34;1.20;;;0.40;;
3683;SDS011;1858;48.716;9.648;2022-12-29T03:55:03;1.40;;;0.50;;
3683;SDS011;1858;48.716;9.648;2022-12-29T03:57:32;1.50;;;0.60;;
3683;SDS011;1858;48.716;9.648;2022-12-29T04:00:00;2.37;;;1.37;;
3683;SDS011;1858;48.716;9.648;2022-12-29T04:02:29;2.23;;;0.50;;
3683;SDS011;1858;48.716;9.648;2022-12-29T04:04:57;1.50;;;0.60;;
3683;SDS011;1858;48.716;9.648;2022-12-29T04:07:26;4.90;;;0.60;;
3683;SDS011;1858;48.716;9.648;2022-12-29T04:09:54;1.53;;;0.50;;
3683;SDS011;1858;48.716;9.648;2022-12-29T04:12:22;1.30;;;0.60;;
3683;SDS011;1858;48.716;9.648;2022-12-29T04:14:51;1.70;;;0.53;;
3683;SDS011;1858;48.716;9.648;2022-12-29T04:17:19;1.40;;;0.70;;
3683;SDS011;1858;48.716;9.648;2022-12-29T04:19:48;2.47;;;2.20;;
3683;SDS011;1858;48.716;9.648;2022-12-29T04:22:16;1.27;;;0.57;;
3683;SDS011;1858;48.716;9.648;2022-12-29T04:24:44;1.10;;;0.40;;
3683;SDS011;1858;48.716;9.648;2022-12-29T04:27:13;1.83;;;0.80;;
3683;SDS011;1858;48.716;9.648;2022-12-29T04:29:41;1.27;;;0.50;;
3683;SDS011;1858;48.716;9.648;2022-12-29T04:32:09;2.63;;;0.77;;
3683;SDS011;1858;48.716;9.648;2022-12-29T04:34:38;1.90;;;0.80;;
3683;SDS011;1858;48.716;9.648;2022-12-29T04:37:06;2.47;;;0.50;;
3683;SDS011;1858;48.716;9.648;2022-12-29T04:39:34;1.50;;;0.60;;
3683;SDS011;1858;48.716;9.648;2022-12-29T04:42:03;1.20;;;0.60;;
3683;SDS011;1858;48.716;9.648;2022-12-29T04:44:31;1.90;;;0.77;;
3683;SDS011;1858;48.716;9.648;2022-12-29T04:47:00;1.70;;;0.77;;
3683;SDS011;1858;48.716;9.648;2022-12-29T04:49:28;2.53;;;0.77;;
3683;SDS011;1858;48.716;9.648;2022-12-29T04:51:57;1.30;;;0.60;;
3683;SDS011;1858;48.716;9.648;2022-12-29T04:54:25;1.93;;;0.70;;
3683;SDS011;1858;48.716;9.648;2022-12-29T04:56:54;2.00;;;0.50;;
3683;SDS011;1858;48.716;9.648;2022-12-29T04:59:22;1.40;;;0.57;;
3683;SDS011;1858;48.716;9.648;2022-12-29T05:01:50;2.00;;;0.80;;
3683;SDS011;1858;48.716;9.648;2022-12-29T05:04:19;1.40;;;0.60;;
3683;SDS011;1858;48.716;9.648;2022-12-29T05:06:47;1.70;;;0.60;;
3683;SDS011;1858;48.716;9.648;2022-12-29T05:09:16;1.30;;;0.57;;
3683;SDS011;1858;48.716;9.648;2022-12-29T05:11:44;1.90;;;0.57;;
3683;SDS011;1858;48.716;9.648;2022-12-29T05:14:13;1.90;;;0.80;;
3683;SDS011;1858;48.716;9.648;2022-12-29T05:16:41;1.20;;;0.40;;
3683;SDS011;1858;48.716;9.648;2022-12-29T05:19:09;1.80;;;0.70;;
3683;SDS011;1858;48.716;9.648;2022-12-29T05:21:38;1.70;;;0.80;;
3683;SDS011;1858;48.716;9.648;2022-12-29T05:24:06;1.83;;;0.70;;
3683;SDS011;1858;48.716;9.648;2022-12-29T05:26:34;2.20;;;0.90;;
3683;SDS011;1858;48.716;9.648;2022-12-29T05:29:03;1.57;;;0.50;;
3683;SDS011;1858;48.716;9.648;2022-12-29T05:31:31;1.97;;;0.90;;
3683;SDS011;1858;48.716;9.648;2022-12-29T05:34:02;2.10;;;0.90;;
3683;SDS011;1858;48.716;9.648;2022-12-29T05:36:30;1.73;;;0.80;;
3683;SDS011;1858;48.716;9.648;2022-12-29T05:38:59;2.13;;;0.93;;
3683;SDS011;1858;48.716;9.648;2022-12-29T05:41:27;2.10;;;0.50;;
3683;SDS011;1858;48.716;9.648;2022-12-29T05:43:56;1.30;;;0.50;;
3683;SDS011;1858;48.716;9.648;2022-12-29T05:46:24;1.30;;;0.53;;
3683;SDS011;1858;48.716;9.648;2022-12-29T05:48:53;1.30;;;0.53;;
3683;SDS011;1858;48.716;9.648;2022-12-29T05:51:21;2.07;;;0.70;;
3683;SDS011;1858;48.716;9.648;2022-12-29T05:53:50;1.50;;;0.77;;
3683;SDS011;1858;48.716;9.648;2022-12-29T05:56:18;1.60;;;0.70;;
3683;SDS011;1858;48.716;9.648;2022-12-29T05:58:47;1.47;;;0.77;;
3683;SDS011;1858;48.716;9.648;2022-12-29T06:01:15;1.40;;;0.50;;
3683;SDS011;1858;48.716;9.648;2022-12-29T06:03:43;2.03;;;0.83;;
3683;SDS011;1858;48.716;9.648;2022-12-29T06:06:12;1.40;;;0.70;;
3683;SDS011;1858;48.716;9.648;2022-12-29T06:08:40;1.40;;;0.83;;
3683;SDS011;1858;48.716;9.648;2022-12-29T06:11:09;1.47;;;0.53;;
3683;SDS011;1858;48.716;9.648;2022-12-29T06:13:37;1.57;;;0.67;;
3683;SDS011;1858;48.716;9.648;2022-12-29T06:16:06;1.40;;;0.60;;
3683;SDS011;1858;48.716;9.648;2022-12-29T06:18:34;1.43;;;0.70;;
3683;SDS011;1858;48.716;9.648;2022-12-29T06:21:03;1.83;;;0.90;;
3683;SDS011;1858;48.716;9.648;2022-12-29T06:23:32;1.80;;;0.87;;
3683;SDS011;1858;48.716;9.648;2022-12-29T06:26:00;1.50;;;0.67;;
3683;SDS011;1858;48.716;9.648;2022-12-29T06:28:29;2.03;;;0.60;;
3683;SDS011;1858;48.716;9.648;2022-12-29T06:30:57;1.57;;;0.80;;
3683;SDS011;1858;48.716;9.648;2022-12-29T06:33:25;3.00;;;0.83;;
3683;SDS011;1858;48.716;9.648;2022-12-29T06:35:54;1.30;;;0.63;;
3683;SDS011;1858;48.716;9.648;2022-12-29T06:38:22;2.17;;;0.80;;
3683;SDS011;1858;48.716;9.648;2022-12-29T06:40:51;1.90;;;0.70;;
3683;SDS011;1858;48.716;9.648;2022-12-29T06:43:19;1.57;;;0.60;;
3683;SDS011;1858;48.716;9.648;2022-12-29T06:45:47;1.93;;;0.70;;
3683;SDS011;1858;48.716;9.648;2022-12-29T06:48:16;1.50;;;0.60;;
3683;SDS011;1858;48.716;9.648;2022-12-29T06:50:45;4.50;;;1.87;;
3683;SDS011;1858;48.716;9.648;2022-12-29T06:53:13;3.00;;;1.63;;
3683;SDS011;1858;48.716;9.648;2022-12-29T06:55:42;3.00;;;2.03;;
3683;SDS011;1858;48.716;9.648;2022-12-29T06:58:10;1.53;;;0.80;;
3683;SDS011;1858;48.716;9.648;2022-12-29T07:00:39;6.03;;;2.30;;
3683;SDS011;1858;48.716;9.648;2022-12-29T07:03:08;7.17;;;3.13;;
3683;SDS011;1858;48.716;9.648;2022-12-29T07:05:38;6.03;;;2.80;;
3683;SDS011;1858;48.716;9.648;2022-12-29T07:08:06;5.53;;;2.60;;
3683;SDS011;1858;48.716;9.648;2022-12-29T07:10:35;8.33;;;3.13;;
3683;SDS011;1858;48.716;9.648;2022-12-29T07:13:03;8.80;;;3.77;;
3683;SDS011;1858;48.716;9.648;2022-12-29T07:15:36;2.57;;;1.33;;
3683;SDS011;1858;48.716;9.648;2022-12-29T07:18:06;1.90;;;1.17;;
3683;SDS011;1858;48.716;9.648;2022-12-29T07:20:35;4.67;;;2.47;;
3683;SDS011;1858;48.716;9.648;2022-12-29T07:23:03;7.47;;;2.87;;
3683;SDS011;1858;48.716;9.648;2022-12-29T07:25:32;10.07;;;3.93;;
3683;SDS011;1858;48.716;9.648;2022-12-29T07:28:03;6.10;;;3.37;;
3683;SDS011;1858;48.716;9.648;2022-12-29T07:30:32;11.27;;;3.83;;
3683;SDS011;1858;48.716;9.648;2022-12-29T07:33:00;3.43;;;1.53;;
3683;SDS011;1858;48.716;9.648;2022-12-29T07:35:30;9.30;;;3.63;;
3683;SDS011;1858;48.716;9.648;2022-12-29T07:38:00;2.60;;;1.47;;
3683;SDS011;1858;48.716;9.648;2022-12-29T07:40:29;7.07;;;2.43;;
3683;SDS011;1858;48.716;9.648;2022-12-29T07:42:57;4.10;;;2.13;;
3683;SDS011;1858;48.716;9.648;2022-12-29T07:45:25;3.53;;;2.70;;
3683;SDS011;1858;48.716;9.648;2022-12-29T07:47:54;2.47;;;1.37;;
3683;SDS011;1858;48.716;9.648;2022-12-29T07:50:25;2.27;;;0.90;;
3683;SDS011;1858;48.716;9.648;2022-12-29T07:52:54;2.80;;;1.00;;
3683;SDS011;1858;48.716;9.648;2022-12-29T07:55:23;3.60;;;1.73;;
3683;SDS011;1858;48.716;9.648;2022-12-29T07:57:55;9.13;;;4.43;;
3683;SDS011;1858;48.716;9.648;2022-12-29T08:00:24;5.47;;;3.40;;
3683;SDS011;1858;48.716;9.648;2022-12-29T08:02:53;4.20;;;1.63;;
3683;SDS011;1858;48.716;9.648;2022-12-29T08:05:21;2.83;;;1.20;;
3683;SDS011;1858;48.716;9.648;2022-12-29T08:07:50;1.20;;;0.53;;
3683;SDS011;1858;48.716;9.648;2022-12-29T08:10:18;1.80;;;0.97;;
3683;SDS011;1858;48.716;9.648;2022-12-29T08:12:47;3.10;;;0.70;;
3683;SDS011;1858;48.716;9.648;2022-12-29T08:15:16;3.37;;;1.47;;
3683;SDS011;1858;48.716;9.648;2022-12-29T08:17:45;1.60;;;0.60;;
3683;SDS011;1858;48.716;9.648;2022-12-29T08:20:13;3.07;;;1.13;;
3683;SDS011;1858;48.716;9.648;2022-12-29T08:22:42;2.43;;;1.10;;
3683;SDS011;1858;48.716;9.648;2022-12-29T08:25:13;3.03;;;1.17;;
3683;SDS011;1858;48.716;9.648;2022-12-29T08:27:41;1.70;;;0.90;;
3683;SDS011;1858;48.716;9.648;2022-12-29T08:30:10;2.37;;;1.70;;
3683;SDS011;1858;48.716;9.648;2022-12-29T08:32:39;1.77;;;1.30;;
3683;SDS011;1858;48.716;9.648;2022-12-29T08:35:08;2.57;;;0.90;;
3683;SDS011;1858;48.716;9.648;2022-12-29T08:37:37;3.30;;;3.03;;
3683;SDS011;1858;48.716;9.648;2022-12-29T08:40:08;1.40;;;0.50;;
3683;SDS011;1858;48.716;9.648;2022-12-29T08:42:37;4.33;;;2.17;;
3683;SDS011;1858;48.716;9.648;2022-12-29T08:45:10;1.60;;;0.50;;
3683;SDS011;1858;48.716;9.648;2022-12-29T08:47:38;3.13;;;2.30;;
3683;SDS011;1858;48.716;9.648;2022-12-29T08:50:07;3.27;;;2.00;;
3683;SDS011;1858;48.716;9.648;2022-12-29T08:52:35;3.83;;;0.90;;
3683;SDS011;1858;48.716;9.648;2022-12-29T08:55:06;3.53;;;0.83;;
3683;SDS011;1858;48.716;9.648;2022-12-29T08:57:35;2.20;;;1.00;;
3683;SDS011;1858;48.716;9.648;2022-12-29T09:00:04;2.00;;;1.00;;
3683;SDS011;1858;48.716;9.648;2022-12-29T09:02:34;1.40;;;0.50;;
3683;SDS011;1858;48.716;9.648;2022-12-29T09:05:05;1.70;;;0.60;;
3683;SDS011;1858;48.716;9.648;2022-12-29T09:07:53;3.03;;;0.70;;
3683;SDS011;1858;48.716;9.648;2022-12-29T09:10:21;5.87;;;0.80;;
3683;SDS011;1858;48.716;9.648;2022-12-29T09:12:50;2.83;;;0.60;;
3683;SDS011;1858;48.716;9.648;2022-12-29T09:15:22;1.73;;;0.70;;
3683;SDS011;1858;48.716;9.648;2022-12-29T09:17:50;3.20;;;1.07;;
3683;SDS011;1858;48.716;9.648;2022-12-29T09:20:19;3.17;;;1.10;;
3683;SDS011;1858;48.716;9.648;2022-12-29T09:22:48;2.00;;;0.70;;
3683;SDS011;1858;48.716;9.648;2022-12-29T09:25:18;1.57;;;0.40;;
3683;SDS011;1858;48.716;9.648;2022-12-29T09:27:47;2.07;;;1.40;;
3683;SDS011;1858;48.716;9.648;2022-12-29T09:30:16;1.87;;;0.73;;
3683;SDS011;1858;48.716;9.648;2022-12-29T09:32:44;2.17;;;0.90;;
3683;SDS011;1858;48.716;9.648;2022-12-29T09:35:13;1.50;;;0.60;;
3683;SDS011;1858;48.716;9.648;2022-12-29T09:37:43;1.40;;;0.60;;
3683;SDS011;1858;48.716;9.648;2022-12-29T09:40:26;5.13;;;1.40;;
3683;SDS011;1858;48.716;9.648;2022-12-29T09:43:17;2.53;;;0.63;;
3683;SDS011;1858;48.716;9.648;2022-12-29T09:48:22;2.30;;;0.70;;
3683;SDS011;1858;48.716;9.648;2022-12-29T09:51:13;1.80;;;0.53;;
3683;SDS011;1858;48.716;9.648;2022-12-29T09:54:04;2.73;;;0.53;;
3683;SDS011;1858;48.716;9.648;2022-12-29T09:56:34;1.50;;;0.57;;
3683;SDS011;1858;48.716;9.648;2022-12-29T09:59:20;1.97;;;0.50;;
3683;SDS011;1858;48.716;9.648;2022-12-29T10:01:49;2.10;;;0.70;;
3683;SDS011;1858;48.716;9.648;2022-12-29T10:04:21;1.30;;;0.40;;
3683;SDS011;1858;48.716;9.648;2022-12-29T10:07:08;1.50;;;0.50;;
3683;SDS011;1858;48.716;9.648;2022-12-29T10:20:24;1.40;;;0.50;;
3683;SDS011;1858;48.716;9.648;2022-12-29T10:26:11;1.30;;;0.40;;
3683;SDS011;1858;48.716;9.648;2022-12-29T10:28:46;1.60;;;0.70;;
3683;SDS011;1858;48.716;9.648;2022-12-29T10:31:14;2.60;;;0.60;;
3683;SDS011;1858;48.716;9.648;2022-12-29T10:34:00;1.77;;;0.73;;
3683;SDS011;1858;48.716;9.648;2022-12-29T10:41:47;1.63;;;0.60;;
3683;SDS011;1858;48.716;9.648;2022-12-29T10:44:18;1.67;;;0.60;;
3683;SDS011;1858;48.716;9.648;2022-12-29T10:47:02;2.27;;;0.67;;
3683;SDS011;1858;48.716;9.648;2022-12-29T10:49:28;3.77;;;0.73;;
3683;SDS011;1858;48.716;9.648;2022-12-29T10:51:59;1.40;;;0.57;;
3683;SDS011;1858;48.716;9.648;2022-12-29T10:54:36;2.43;;;0.90;;
3683;SDS011;1858;48.716;9.648;2022-12-29T10:57:08;1.70;;;0.93;;
3683;SDS011;1858;48.716;9.648;2022-12-29T10:59:38;4.30;;;0.70;;
3683;SDS011;1858;48.716;9.648;2022-12-29T11:05:00;1.30;;;0.43;;
3683;SDS011;1858;48.716;9.648;2022-12-29T11:07:35;1.50;;;0.40;;
3683;SDS011;1858;48.716;9.648;2022-12-29T11:10:18;3.73;;;0.50;;
3683;SDS011;1858;48.716;9.648;2022-12-29T11:12:55;5.83;;;1.67;;
3683;SDS011;1858;48.716;9.648;2022-12-29T11:15:26;1.20;;;0.40;;
3683;SDS011;1858;48.716;9.648;2022-12-29T11:17:58;1.90;;;0.80;;
3683;SDS011;1858;48.716;9.648;2022-12-29T11:20:34;7.20;;;5.27;;
3683;SDS011;1858;48.716;9.648;2022-12-29T11:23:25;1.70;;;0.40;;
3683;SDS011;1858;48.716;9.648;2022-12-29T11:28:45;3.20;;;0.70;;
3683;SDS011;1858;48.716;9.648;2022-12-29T11:31:16;1.70;;;0.70;;
3683;SDS011;1858;48.716;9.648;2022-12-29T11:33:47;1.20;;;0.40;;
3683;SDS011;1858;48.716;9.648;2022-12-29T11:36:23;1.43;;;0.60;;
3683;SDS011;1858;48.716;9.648;2022-12-29T11:38:51;1.90;;;0.50;;
3683;SDS011;1858;48.716;9.648;2022-12-29T11:41:26;1.43;;;0.47;;
3683;SDS011;1858;48.716;9.648;2022-12-29T11:43:58;1.40;;;0.70;;
3683;SDS011;1858;48.716;9.648;2022-12-29T11:46:32;1.80;;;0.90;;
3683;SDS011;1858;48.716;9.648;2022-12-29T11:49:03;1.10;;;0.30;;
3683;SDS011;1858;48.716;9.648;2022-12-29T11:51:38;1.60;;;0.60;;
3683;SDS011;1858;48.716;9.648;2022-12-29T11:54:17;1.57;;;0.60;;
3683;SDS011;1858;48.716;9.648;2022-12-29T11:56:48;4.07;;;0.83;;
3683;SDS011;1858;48.716;9.648;2022-12-29T12:02:03;1.20;;;0.40;;
3683;SDS011;1858;48.716;9.648;2022-12-29T12:04:53;1.53;;;0.50;;
3683;SDS011;1858;48.716;9.648;2022-12-29T12:07:27;1.73;;;0.60;;
3683;SDS011;1858;48.716;9.648;2022-12-29T12:10:03;1.50;;;0.60;;
3683;SDS011;1858;48.716;9.648;2022-12-29T12:12:39;2.37;;;0.60;;
3683;SDS011;1858;48.716;9.648;2022-12-29T12:15:08;1.30;;;0.57;;
3683;SDS011;1858;48.716;9.648;2022-12-29T12:18:03;1.90;;;0.73;;
3683;SDS011;1858;48.716;9.648;2022-12-29T12:20:27;2.27;;;0.50;;
3683;SDS011;1858;48.716;9.648;2022-12-29T12:23:06;3.23;;;0.77;;
3683;SDS011;1858;48.716;9.648;2022-12-29T12:25:43;1.70;;;0.50;;
3683;SDS011;1858;48.716;9.648;2022-12-29T12:28:12;2.57;;;1.47;;
3683;SDS011;1858;48.716;9.648;2022-12-29T12:30:45;1.50;;;0.50;;
3683;SDS011;1858;48.716;9.648;2022-12-29T12:33:19;6.73;;;0.87;;
3683;SDS011;1858;48.716;9.648;2022-12-29T12:44:26;1.30;;;0.50;;
3683;SDS011;1858;48.716;9.648;2022-12-29T12:58:59;1.67;;;0.80;;
3683;SDS011;1858;48.716;9.648;2022-12-29T13:15:40;1.40;;;0.57;;
3683;SDS011;1858;48.716;9.648;2022-12-29T13:20:47;1.63;;;0.73;;
3683;SDS011;1858;48.716;9.648;2022-12-29T13:26:40;1.50;;;0.57;;
3683;SDS011;1858;48.716;9.648;2022-12-29T13:34:44;2.13;;;0.70;;
3683;SDS011;1858;48.716;9.648;2022-12-29T13:37:29;3.77;;;1.20;;
3683;SDS011;1858;48.716;9.648;2022-12-29T13:40:10;1.70;;;0.80;;
3683;SDS011;1858;48.716;9.648;2022-12-29T13:42:40;1.73;;;0.60;;
3683;SDS011;1858;48.716;9.648;2022-12-29T13:45:12;1.87;;;0.53;;
3683;SDS011;1858;48.716;9.648;2022-12-29T13:47:58;1.93;;;0.90;;
3683;SDS011;1858;48.716;9.648;2022-12-29T13:50:54;1.83;;;0.60;;
3683;SDS011;1858;48.716;9.648;2022-12-29T13:53:34;2.33;;;0.70;;
3683;SDS011;1858;48.716;9.648;2022-12-29T13:56:19;1.97;;;1.20;;
3683;SDS011;1858;48.716;9.648;2022-12-29T13:59:17;1.60;;;0.57;;
3683;SDS011;1858;48.716;9.648;2022-12-29T14:01:53;3.83;;;1.60;;
3683;SDS011;1858;48.716;9.648;2022-12-29T14:04:30;1.20;;;0.40;;
3683;SDS011;1858;48.716;9.648;2022-12-29T14:06:59;2.20;;;0.63;;
3683;SDS011;1858;48.716;9.648;2022-12-29T14:09:46;2.67;;;0.73;;
3683;SDS011;1858;48.716;9.648;2022-12-29T14:12:38;2.70;;;0.60;;
3683;SDS011;1858;48.716;9.648;2022-12-29T14:15:27;1.77;;;0.70;;
3683;SDS011;1858;48.716;9.648;2022-12-29T14:18:10;3.00;;;1.00;;
3683;SDS011;1858;48.716;9.648;2022-12-29T14:20:56;2.40;;;1.07;;
3683;SDS011;1858;48.716;9.648;2022-12-29T14:23:27;3.20;;;0.70;;
3683;SDS011;1858;48.716;9.648;2022-12-29T14:36:40;3.93;;;0.90;;
3683;SDS011;1858;48.716;9.648;2022-12-29T14:39:32;3.50;;;1.23;;
3683;SDS011;1858;48.716;9.648;2022-12-29T14:52:46;2.43;;;0.80;;
3683;SDS011;1858;48.716;9.648;2022-12-29T14:55:30;2.50;;;0.90;;
3683;SDS011;1858;48.716;9.648;2022-12-29T14:58:04;4.30;;;1.43;;
3683;SDS011;1858;48.716;9.648;2022-12-29T15:00:34;3.17;;;1.30;;
3683;SDS011;1858;48.716;9.648;2022-12-29T15:03:04;3.10;;;0.77;;
3683;SDS011;1858;48.716;9.648;2022-12-29T15:08:26;4.03;;;2.70;;
3683;SDS011;1858;48.716;9.648;2022-12-29T15:10:59;6.40;;;2.63;;
3683;SDS011;1858;48.716;9.648;2022-12-29T15:13:38;11.20;;;4.43;;
3683;SDS011;1858;48.716;9.648;2022-12-29T15:16:04;4.90;;;2.77;;
3683;SDS011;1858;48.716;9.648;2022-12-29T15:18:34;2.60;;;1.20;;
3683;SDS011;1858;48.716;9.648;2022-12-29T15:21:05;2.60;;;1.57;;
3683;SDS011;1858;48.716;9.648;2022-12-29T15:23:34;3.47;;;1.53;;
3683;SDS011;1858;48.716;9.648;2022-12-29T15:26:14;2.40;;;1.50;;
3683;SDS011;1858;48.716;9.648;2022-12-29T15:28:46;6.20;;;2.67;;
3683;SDS011;1858;48.716;9.648;2022-12-29T15:31:17;23.30;;;8.20;;
3683;SDS011;1858;48.716;9.648;2022-12-29T15:33:48;7.97;;;5.00;;
3683;SDS011;1858;48.716;9.648;2022-12-29T15:36:23;7.83;;;5.17;;
3683;SDS011;1858;48.716;9.648;2022-12-29T15:38:54;6.90;;;4.67;;
3683;SDS011;1858;48.716;9.648;2022-12-29T15:41:29;14.00;;;6.63;;
3683;SDS011;1858;48.716;9.648;2022-12-29T15:44:09;32.77;;;15.90;;
3683;SDS011;1858;48.716;9.648;2022-12-29T15:47:05;11.83;;;6.83;;
3683;SDS011;1858;48.716;9.648;2022-12-29T15:50:03;4.00;;;2.80;;
3683;SDS011;1858;48.716;9.648;2022-12-29T15:52:29;7.50;;;3.40;;
3683;SDS011;1858;48.716;9.648;2022-12-29T15:55:00;6.20;;;3.90;;
3683;SDS011;1858;48.716;9.648;2022-12-29T15:57:30;10.53;;;6.37;;
3683;SDS011;1858;48.716;9.648;2022-12-29T16:00:32;8.60;;;6.20;;
3683;SDS011;1858;48.716;9.648;2022-12-29T16:03:05;6.40;;;3.70;;
3683;SDS011;1858;48.716;9.648;2022-12-29T16:05:36;4.43;;;2.80;;
3683;SDS011;1858;48.716;9.648;2022-12-29T16:10:56;3.03;;;2.70;;
3683;SDS011;1858;48.716;9.648;2022-12-29T16:16:08;5.00;;;2.47;;
3683;SDS011;1858;48.716;9.648;2022-12-29T16:18:38;3.03;;;2.13;;
3683;SDS011;1858;48.716;9.648;2022-12-29T16:21:15;3.07;;;1.93;;
3683;SDS011;1858;48.716;9.648;2022-12-29T16:23:41;4.97;;;3.27;;
3683;SDS011;1858;48.716;9.648;2022-12-29T16:26:18;3.67;;;2.40;;
3683;SDS011;1858;48.716;9.648;2022-12-29T16:28:50;2.50;;;1.77;;
3683;SDS011;1858;48.716;9.648;2022-12-29T16:31:24;2.77;;;1.20;;
3683;SDS011;1858;48.716;9.648;2022-12-29T16:33:54;2.27;;;1.23;;
3683;SDS011;1858;48.716;9.648;2022-12-29T16:50:37;4.87;;;1.70;;
3683;SDS011;1858;48.716;9.648;2022-12-29T16:55:56;2.40;;;1.00;;
3683;SDS011;1858;48.716;9.648;2022-12-29T16:58:27;4.93;;;1.23;;
3683;SDS011;1858;48.716;9.648;2022-12-29T17:00:58;1.63;;;0.90;;
3683;SDS011;1858;48.716;9.648;2022-12-29T17:03:34;2.03;;;0.73;;
3683;SDS011;1858;48.716;9.648;2022-12-29T17:06:04;3.23;;;1.60;;
3683;SDS011;1858;48.716;9.648;2022-12-29T17:08:39;3.60;;;1.33;;
3683;SDS011;1858;48.716;9.648;2022-12-29T17:11:22;2.80;;;1.30;;
3683;SDS011;1858;48.716;9.648;2022-12-29T17:14:21;3.10;;;1.40;;
3683;SDS011;1858;48.716;9.648;2022-12-29T17:17:14;2.73;;;1.43;;
3683;SDS011;1858;48.716;9.648;2022-12-29T17:19:48;5.57;;;1.57;;
3683;SDS011;1858;48.716;9.648;2022-12-29T17:22:22;2.73;;;0.87;;
3683;SDS011;1858;48.716;9.648;2022-12-29T17:24:53;4.23;;;1.07;;
3683;SDS011;1858;48.716;9.648;2022-12-29T17:27:36;2.87;;;0.87;;
3683;SDS011;1858;48.716;9.648;2022-12-29T17:30:14;1.77;;;0.90;;
3683;SDS011;1858;48.716;9.648;2022-12-29T17:32:49;1.83;;;0.80;;
3683;SDS011;1858;48.716;9.648;2022-12-29T17:35:21;3.00;;;0.83;;
3683;SDS011;1858;48.716;9.648;2022-12-29T17:37:50;1.90;;;0.50;;
3683;SDS011;1858;48.716;9.648;2022-12-29T17:40:20;1.50;;;0.70;;
3683;SDS011;1858;48.716;9.648;2022-12-29T17:42:54;3.00;;;1.13;;
3683;SDS011;1858;48.716;9.648;2022-12-29T17:45:27;1.40;;;0.60;;
3683;SDS011;1858;48.716;9.648;2022-12-29T17:47:57;3.20;;;1.00;;
3683;SDS011;1858;48.716;9.648;2022-12-29T17:50:28;2.80;;;1.00;;
3683;SDS011;1858;48.716;9.648;2022-12-29T17:53:02;3.20;;;1.47;;
3683;SDS011;1858;48.716;9.648;2022-12-29T17:55:33;5.23;;;1.47;;
3683;SDS011;1858;48.716;9.648;2022-12-29T17:58:10;2.50;;;1.17;;
3683;SDS011;1858;48.716;9.648;2022-12-29T18:00:34;2.73;;;1.67;;
3683;SDS011;1858;48.716;9.648;2022-12-29T18:03:02;3.60;;;1.93;;
3683;SDS011;1858;48.716;9.648;2022-12-29T18:05:30;4.07;;;1.93;;
3683;SDS011;1858;48.716;9.648;2022-12-29T18:07:59;2.97;;;1.23;;
3683;SDS011;1858;48.716;9.648;2022-12-29T18:10:28;12.50;;;3.10;;
3683;SDS011;1858;48.716;9.648;2022-12-29T18:12:58;5.73;;;2.30;;
3683;SDS011;1858;48.716;9.648;2022-12-29T18:15:30;4.33;;;1.67;;
3683;SDS011;1858;48.716;9.648;2022-12-29T18:18:09;3.77;;;2.33;;
3683;SDS011;1858;48.716;9.648;2022-12-29T18:20:39;1.83;;;1.03;;